Time;durP1;ratioP1;P1;durP2;ratioP2;P2;SDS_P1;SDS_P2;PMS_P1;PMS_P2;Temp;Humidity;BMP_temperature;BMP_pressure;BME280_temperature;BME280_humidity;BME280_pressure;Samples;Min_cycle;Max_cycle;Signal;HPM_P1;HPM_P2
2022/01/26 05:11:36;;;;;;;7.95;5.25;;;-4.10;99.90;;;;;;5512650;23;20230;-70
2022/01/26 05:14:03;;;;;;;11.05;6.18;;;-4.10;99.90;;;;;;4994300;28;20302;-69
2022/01/26 05:16:30;;;;;;;9.93;5.60;;;-4.20;99.90;;;;;;4994431;28;20235;-69
2022/01/26 05:18:58;;;;;;;9.05;6.70;;;-4.20;99.90;;;;;;4994406;28;20207;-69
2022/01/26 05:21:26;;;;;;;10.65;5.75;;;-4.30;99.90;;;;;;4994698;28;20221;-69
2022/01/26 05:23:54;;;;;;;8.30;5.72;;;-4.30;99.90;;;;;;4994202;28;20514;-69
2022/01/26 05:26:21;;;;;;;10.23;5.97;;;-4.20;99.90;;;;;;4994121;28;20569;-69
2022/01/26 05:28:50;;;;;;;10.82;6.95;;;-4.20;99.90;;;;;;4994595;28;20294;-69
2022/01/26 05:31:18;;;;;;;11.32;6.78;;;-4.20;99.90;;;;;;4994287;28;20237;-69
2022/01/26 05:33:45;;;;;;;13.57;7.00;;;-4.20;99.90;;;;;;4994012;28;20298;-69
2022/01/26 05:36:12;;;;;;;13.50;6.95;;;-4.20;99.90;;;;;;4994254;28;20213;-69
2022/01/26 05:38:40;;;;;;;10.63;6.53;;;-4.20;99.90;;;;;;4994107;28;20209;-69
2022/01/26 05:41:10;;;;;;;9.80;5.93;;;-4.20;99.90;;;;;;4994089;28;20305;-69
2022/01/26 05:43:38;;;;;;;11.20;5.97;;;-4.20;99.90;;;;;;4993684;28;20187;-68
2022/01/26 05:46:10;;;;;;;11.02;6.18;;;-4.30;99.90;;;;;;4994201;28;20670;-68
2022/01/26 05:48:43;;;;;;;10.82;6.80;;;-4.30;99.90;;;;;;4994576;28;20197;-66
2022/01/26 05:51:11;;;;;;;20.35;9.77;;;-4.30;99.90;;;;;;5017371;23;20257;-68
2022/01/26 05:53:39;;;;;;;16.98;8.98;;;-4.40;99.90;;;;;;4994485;28;20247;-68
2022/01/26 05:56:06;;;;;;;18.70;9.65;;;-4.30;99.90;;;;;;4994435;28;20209;-71
2022/01/26 05:58:33;;;;;;;17.10;8.82;;;-4.30;99.90;;;;;;4994224;28;20213;-73
2022/01/26 06:01:01;;;;;;;15.43;8.32;;;-4.30;99.90;;;;;;4993727;28;20223;-73
2022/01/26 06:03:30;;;;;;;18.65;9.43;;;-4.30;99.90;;;;;;4994132;28;20202;-73
2022/01/26 06:05:57;;;;;;;16.20;9.15;;;-4.30;99.90;;;;;;4993968;28;20237;-72
2022/01/26 06:08:24;;;;;;;14.70;9.20;;;-4.40;99.90;;;;;;4993977;28;20289;-70
2022/01/26 06:10:54;;;;;;;15.10;8.40;;;-4.40;99.90;;;;;;4996178;28;20226;-72
2022/01/26 06:13:21;;;;;;;16.23;9.02;;;-4.40;99.90;;;;;;4994773;28;20661;-72
2022/01/26 06:15:48;;;;;;;11.77;7.55;;;-4.50;99.90;;;;;;4995721;28;20293;-71
2022/01/26 11:00:46;;;;;;;14.60;9.85;;;3.20;99.90;;;;;;5934065;23;21223;-71
2022/01/26 11:03:13;;;;;;;13.38;8.27;;;3.20;99.90;;;;;;5002631;28;20280;-70
2022/01/26 11:05:40;;;;;;;14.98;9.63;;;3.30;99.90;;;;;;5001968;28;20230;-71
2022/01/26 11:08:10;;;;;;;16.25;9.95;;;3.30;99.90;;;;;;5002207;28;20293;-71
2022/01/26 11:10:39;;;;;;;14.43;9.50;;;3.30;99.90;;;;;;5000718;28;20314;-70
2022/01/26 11:13:07;;;;;;;13.98;8.55;;;3.30;99.90;;;;;;5001539;28;20286;-69
2022/01/26 11:15:35;;;;;;;13.07;8.27;;;3.30;99.90;;;;;;5001310;28;20634;-69
2022/01/26 11:18:10;;;;;;;15.88;8.20;;;3.30;99.90;;;;;;4999436;28;20207;-68
2022/01/26 11:20:48;;;;;;;13.30;8.05;;;3.30;99.90;;;;;;4999942;28;20313;-68
2022/01/26 11:23:18;;;;;;;14.23;9.23;;;3.40;99.90;;;;;;4996846;28;20274;-68
2022/01/26 11:25:46;;;;;;;12.93;9.35;;;3.50;99.90;;;;;;4996796;28;20241;-69
2022/01/26 11:28:19;;;;;;;14.43;9.50;;;3.50;99.90;;;;;;4996380;28;20290;-68
2022/01/26 11:30:46;;;;;;;16.17;9.40;;;3.60;99.90;;;;;;4996227;28;20305;-68
2022/01/26 11:33:18;;;;;;;14.85;9.40;;;3.60;99.90;;;;;;4996199;28;20273;-68
2022/01/26 11:35:47;;;;;;;14.68;9.32;;;3.70;99.90;;;;;;4996583;28;20218;-68
2022/01/26 11:47:06;;;;;;;13.15;8.00;;;3.80;99.90;;;;;;5002413;28;20190;-68
2022/01/26 11:49:41;;;;;;;11.63;7.63;;;3.80;99.90;;;;;;5004144;28;20630;-69
2022/01/26 11:52:23;;;;;;;11.68;7.68;;;3.90;99.90;;;;;;5003570;28;20657;-69
2022/01/26 11:54:56;;;;;;;11.40;7.70;;;3.90;99.90;;;;;;5001535;28;20190;-68
2022/01/26 11:57:40;;;;;;;12.30;7.82;;;4.00;99.90;;;;;;5003149;28;20183;-69
2022/01/26 12:00:12;;;;;;;12.35;7.30;;;4.00;99.90;;;;;;5002559;28;20198;-68
2022/01/26 12:02:51;;;;;;;11.05;8.00;;;4.00;99.90;;;;;;5002434;28;20246;-68
2022/01/26 12:05:23;;;;;;;9.52;6.90;;;4.10;99.90;;;;;;4999726;28;20278;-68
2022/01/26 12:07:52;;;;;;;9.73;7.05;;;4.10;99.90;;;;;;4999797;28;20194;-68
2022/01/26 12:10:26;;;;;;;12.00;7.72;;;4.10;99.90;;;;;;5000287;28;20211;-68
2022/01/26 12:13:02;;;;;;;13.15;7.97;;;4.10;99.90;;;;;;5003037;28;20618;-68
2022/01/26 12:15:42;;;;;;;8.48;6.78;;;4.10;99.90;;;;;;5003980;28;20277;-68
2022/01/26 12:18:25;;;;;;;9.82;7.03;;;4.10;99.90;;;;;;5002781;28;20628;-68
2022/01/26 12:35:21;;;;;;;6.68;5.47;;;4.30;99.90;;;;;;4996855;28;20380;-67
2022/01/26 12:38:04;;;;;;;7.95;5.93;;;4.30;99.90;;;;;;4998708;28;20191;-67
2022/01/26 12:43:34;;;;;;;6.95;5.20;;;4.20;99.90;;;;;;5000837;28;20186;-68
2022/01/26 12:46:02;;;;;;;5.07;4.53;;;4.30;99.90;;;;;;5000090;28;20187;-67
2022/01/26 12:48:34;;;;;;;4.57;4.18;;;4.30;99.90;;;;;;4995382;28;20597;-67
2022/01/26 12:51:02;;;;;;;4.65;4.25;;;4.30;99.90;;;;;;4998690;28;20223;-67
2022/01/26 12:53:35;;;;;;;6.03;4.40;;;4.30;99.90;;;;;;4998544;28;20659;-67
2022/01/26 12:56:04;;;;;;;4.18;3.78;;;4.30;99.90;;;;;;4997832;28;20187;-66
2022/01/26 12:58:32;;;;;;;4.32;3.92;;;4.30;99.90;;;;;;4994694;28;20245;-67
2022/01/26 13:01:02;;;;;;;4.45;3.67;;;4.20;99.90;;;;;;4994876;28;20222;-66
2022/01/26 13:03:31;;;;;;;3.55;3.25;;;4.20;99.90;;;;;;4994442;28;20788;-66
2022/01/26 13:06:10;;;;;;;3.67;3.38;;;4.20;99.90;;;;;;4994877;28;20253;-66
2022/01/26 13:08:49;;;;;;;3.63;3.38;;;4.10;99.90;;;;;;4994571;28;20634;-66
2022/01/26 13:11:27;;;;;;;2.90;2.70;;;4.10;99.90;;;;;;4994604;28;20317;-66
2022/01/26 13:14:14;;;;;;;3.13;2.92;;;4.00;99.90;;;;;;4994566;28;20222;-67
2022/01/26 13:16:45;;;;;;;3.08;2.65;;;4.00;99.90;;;;;;4994729;28;20613;-67
2022/01/26 13:19:31;;;;;;;2.70;2.58;;;4.00;99.90;;;;;;4994331;28;20194;-66
2022/01/26 13:22:27;;;;;;;2.97;2.78;;;3.90;99.90;;;;;;4994554;28;20313;-66
2022/01/26 13:28:00;;;;;;;3.00;2.80;;;3.80;99.90;;;;;;4987688;28;20198;-66
2022/01/26 13:30:47;;;;;;;2.83;2.63;;;3.80;99.90;;;;;;4994583;28;20329;-66
2022/01/26 13:36:09;;;;;;;2.30;2.20;;;3.80;99.90;;;;;;4987062;28;20194;-66
2022/01/26 13:38:48;;;;;;;2.58;2.47;;;3.70;99.90;;;;;;4994062;28;20277;-67
2022/01/26 13:49:54;;;;;;;2.17;2.08;;;3.50;99.90;;;;;;5091122;28;20214;-66
2022/01/26 13:52:42;;;;;;;2.25;2.15;;;3.50;99.90;;;;;;5091039;28;20223;-66
2022/01/26 13:58:18;;;;;;;2.13;2.03;;;3.30;99.90;;;;;;5090764;28;20635;-66
2022/01/26 14:00:54;;;;;;;1.83;1.80;;;3.30;99.90;;;;;;5090934;28;20226;-66
2022/01/26 14:03:25;;;;;;;2.45;2.28;;;3.20;99.90;;;;;;5091193;28;20193;-66
2022/01/26 14:05:55;;;;;;;2.50;2.20;;;3.10;99.90;;;;;;5091293;28;20325;-66
2022/01/26 14:08:21;;;;;;;2.03;1.92;;;3.10;99.90;;;;;;5091330;28;20202;-67
2022/01/26 14:10:49;;;;;;;2.00;1.90;;;3.00;99.90;;;;;;5090941;28;20223;-67
2022/01/26 14:13:20;;;;;;;2.17;2.08;;;3.00;99.90;;;;;;5091117;28;20203;-67
2022/01/26 14:15:50;;;;;;;2.67;2.10;;;2.90;99.90;;;;;;5090750;28;20542;-67
2022/01/26 14:21:29;;;;;;;1.92;1.83;;;2.80;99.90;;;;;;5048525;28;20343;-67
2022/01/26 14:24:22;;;;;;;2.00;1.90;;;2.70;99.90;;;;;;5048624;28;20185;-67
2022/01/26 14:26:53;;;;;;;2.00;1.80;;;2.70;99.90;;;;;;5078323;28;20253;-67
2022/01/26 14:29:29;;;;;;;2.10;2.00;;;2.60;99.90;;;;;;5090715;28;20184;-67
2022/01/26 14:40:50;;;;;;;1.50;1.50;;;2.50;99.90;;;;;;5090462;28;20195;-67
2022/01/26 14:51:56;;;;;;;2.30;2.20;;;2.40;99.90;;;;;;5090541;28;20218;-67
2022/01/26 15:00:19;;;;;;;1.90;1.80;;;2.20;99.90;;;;;;5076458;28;20670;-67
2022/01/26 15:21:14;;;;;;;1.80;1.73;;;2.00;99.90;;;;;;5076350;28;20226;-67
2022/01/26 15:34:11;;;;;;;2.08;2.00;;;1.80;99.90;;;;;;5075914;28;20187;-67
2022/01/26 15:42:20;;;;;;;2.10;2.00;;;1.70;99.90;;;;;;5075362;28;20304;-67
2022/01/26 15:45:03;;;;;;;2.03;1.92;;;1.60;99.90;;;;;;5075613;28;20211;-68
2022/01/26 15:50:35;;;;;;;1.60;1.60;;;1.50;99.90;;;;;;5037022;28;20189;-68
2022/01/26 15:53:07;;;;;;;1.85;1.75;;;1.40;99.90;;;;;;5075346;28;20200;-67
2022/01/26 15:58:25;;;;;;;1.80;1.70;;;1.30;99.90;;;;;;5075891;28;20642;-67
2022/01/26 16:06:35;;;;;;;1.65;1.65;;;1.20;99.90;;;;;;5075583;28;20716;-68
2022/01/26 16:17:50;;;;;;;1.75;1.73;;;1.00;99.90;;;;;;5074972;28;20217;-68
2022/01/26 17:21:16;;;;;;;2.63;2.42;;;-0.10;99.90;;;;;;5073427;28;20199;-70
2022/01/26 17:43:29;;;;;;;2.30;2.20;;;-0.20;99.90;;;;;;5032167;28;20185;-70
2022/01/26 18:16:22;;;;;;;6.15;3.38;;;-0.50;99.90;;;;;;5076212;28;20246;-70
2022/01/26 18:31:47;;;;;;;2.50;2.30;;;-0.60;99.90;;;;;;5077480;28;20211;-68
2022/01/26 18:32:48;;;;;;;4.00;3.08;;;-0.60;99.90;;;;;;5079817;28;20206;-69
2022/01/26 18:46:43;;;;;;;3.72;3.30;;;-0.80;99.90;;;;;;5080786;28;20242;-68
2022/01/26 18:49:13;;;;;;;3.58;2.97;;;-0.80;99.90;;;;;;5080929;28;20207;-68
2022/01/26 18:51:43;;;;;;;2.80;2.47;;;-0.80;99.90;;;;;;5081364;28;20224;-68
2022/01/26 18:54:13;;;;;;;2.90;2.70;;;-0.90;99.90;;;;;;5080249;28;20203;-68
2022/01/26 18:56:41;;;;;;;2.83;2.55;;;-0.90;99.90;;;;;;5078325;28;20291;-71
2022/01/26 18:59:09;;;;;;;2.83;2.63;;;-0.90;99.90;;;;;;5081172;28;20212;-70
2022/01/26 19:01:38;;;;;;;3.50;3.25;;;-0.90;99.90;;;;;;5080024;28;20250;-70
2022/01/26 19:04:05;;;;;;;3.78;2.67;;;-1.00;99.90;;;;;;5076676;28;20242;-70
2022/01/26 19:06:32;;;;;;;3.53;2.90;;;-1.10;99.90;;;;;;5076458;28;20299;-70
2022/01/26 19:08:59;;;;;;;5.18;3.17;;;-1.10;99.90;;;;;;5076644;28;20207;-70
2022/01/26 19:11:26;;;;;;;2.67;2.50;;;-1.10;99.90;;;;;;5076189;28;20710;-70
2022/01/26 19:13:53;;;;;;;2.63;2.42;;;-1.10;99.90;;;;;;5076261;28;20730;-70
2022/01/26 19:16:29;;;;;;;3.40;2.85;;;-1.20;99.90;;;;;;5077032;28;20287;-71
2022/01/26 19:19:07;;;;;;;2.67;2.47;;;-1.20;99.90;;;;;;5076448;28;20188;-71
2022/01/26 19:21:51;;;;;;;2.60;2.40;;;-1.30;99.90;;;;;;5076517;28;20622;-70
2022/01/26 19:24:37;;;;;;;2.60;2.30;;;-1.30;99.90;;;;;;5075810;28;20188;-68
2022/01/26 19:27:15;;;;;;;2.65;2.45;;;-1.30;99.90;;;;;;5075843;28;20211;-69
2022/01/26 19:30:05;;;;;;;2.60;2.40;;;-1.40;99.90;;;;;;5076339;28;20645;-71
2022/01/26 19:32:48;;;;;;;2.45;2.25;;;-1.40;99.90;;;;;;5076031;28;20564;-72
2022/01/26 19:43:48;;;;;;;2.65;2.45;;;-1.50;99.90;;;;;;5076017;28;20546;-72
2022/01/26 19:46:26;;;;;;;2.15;2.05;;;-1.60;99.90;;;;;;5075358;28;20247;-72
2022/01/26 19:52:06;;;;;;;1.75;1.75;;;-1.60;99.90;;;;;;5037452;28;20213;-72
2022/01/26 19:54:33;;;;;;;2.28;2.08;;;-1.70;99.90;;;;;;5075466;28;20633;-72
2022/01/26 19:57:00;;;;;;;2.10;2.00;;;-1.70;99.90;;;;;;5075590;28;20235;-72
2022/01/26 19:59:27;;;;;;;1.95;1.85;;;-1.70;99.90;;;;;;5075207;28;20750;-72
2022/01/26 20:01:54;;;;;;;1.90;1.85;;;-1.70;99.90;;;;;;5075741;28;20307;-73
2022/01/26 20:04:21;;;;;;;2.08;1.98;;;-1.70;99.90;;;;;;5075543;28;20291;-72
2022/01/26 20:06:50;;;;;;;1.92;1.83;;;-1.70;99.90;;;;;;5075314;28;20277;-72
2022/01/26 20:09:24;;;;;;;2.00;1.90;;;-1.70;99.90;;;;;;5075428;28;20200;-71
2022/01/26 20:11:56;;;;;;;1.80;1.80;;;-1.70;99.90;;;;;;5075124;28;20714;-72
2022/01/26 20:14:27;;;;;;;2.00;1.90;;;-1.70;99.90;;;;;;5074895;28;20550;-71
2022/01/26 20:16:54;;;;;;;1.90;1.80;;;-1.80;99.90;;;;;;5075052;28;20220;-71
2022/01/26 20:19:21;;;;;;;2.42;2.33;;;-1.80;99.90;;;;;;5074791;28;20287;-71
2022/01/26 20:21:48;;;;;;;1.75;1.65;;;-1.80;99.90;;;;;;5075344;28;20471;-72
2022/01/26 20:24:16;;;;;;;2.03;1.92;;;-1.90;99.90;;;;;;5074911;28;20211;-71
2022/01/26 20:26:44;;;;;;;1.98;1.88;;;-1.90;99.90;;;;;;5074960;28;20262;-71
2022/01/26 20:29:11;;;;;;;2.10;2.00;;;-1.90;99.90;;;;;;5074692;28;20208;-72
2022/01/26 20:31:39;;;;;;;1.70;1.70;;;-2.00;99.90;;;;;;5074933;28;20227;-71
2022/01/26 20:34:06;;;;;;;2.10;2.00;;;-2.00;99.90;;;;;;5074399;28;20283;-72
2022/01/26 20:36:33;;;;;;;2.28;2.17;;;-2.00;99.90;;;;;;5074472;28;20234;-72
2022/01/26 20:39:02;;;;;;;2.45;2.35;;;-2.00;99.90;;;;;;5074506;28;20291;-72
2022/01/26 20:41:30;;;;;;;2.53;2.33;;;-2.10;99.90;;;;;;5074679;28;20246;-72
2022/01/26 20:43:57;;;;;;;2.50;2.30;;;-2.10;99.90;;;;;;5074745;28;20325;-72
2022/01/26 20:46:24;;;;;;;2.58;2.38;;;-2.10;99.90;;;;;;5074222;28;20327;-71
2022/01/26 20:48:51;;;;;;;2.53;2.33;;;-2.10;99.90;;;;;;5074480;28;20294;-72
2022/01/26 20:51:18;;;;;;;3.13;2.00;;;-2.20;99.90;;;;;;5074339;28;20310;-73
2022/01/26 20:53:47;;;;;;;2.22;2.13;;;-2.20;99.90;;;;;;5074262;28;20291;-73
2022/01/26 20:56:16;;;;;;;2.40;2.30;;;-2.20;99.90;;;;;;5073628;28;20196;-70
2022/01/26 20:58:44;;;;;;;2.50;2.30;;;-2.30;99.90;;;;;;5074398;28;20249;-70
2022/01/26 21:01:11;;;;;;;2.47;2.17;;;-2.30;99.90;;;;;;5074274;28;20307;-70
2022/01/26 21:03:39;;;;;;;2.45;2.35;;;-2.30;99.90;;;;;;5074247;28;20762;-70
2022/01/26 21:06:06;;;;;;;2.53;2.42;;;-2.30;99.90;;;;;;5074319;28;20295;-69
2022/01/26 21:08:33;;;;;;;2.97;2.65;;;-2.30;99.90;;;;;;5074295;28;20295;-69
2022/01/26 21:11:01;;;;;;;2.40;2.30;;;-2.30;99.90;;;;;;5074165;28;20255;-71
2022/01/26 21:13:28;;;;;;;2.10;2.00;;;-2.30;99.90;;;;;;5074178;28;20211;-70
2022/01/26 21:15:56;;;;;;;2.30;2.20;;;-2.40;99.90;;;;;;5074420;28;20282;-70
2022/01/26 21:18:23;;;;;;;2.80;2.60;;;-2.40;99.90;;;;;;5073741;28;20646;-70
2022/01/26 21:20:49;;;;;;;2.45;2.35;;;-2.40;99.90;;;;;;5073488;28;20259;-70
2022/01/26 21:23:16;;;;;;;2.70;2.60;;;-2.40;99.90;;;;;;5073617;28;20643;-69
2022/01/26 21:25:43;;;;;;;2.30;2.13;;;-2.40;99.90;;;;;;5073577;28;20734;-69
2022/01/26 21:28:10;;;;;;;2.45;2.35;;;-2.50;99.90;;;;;;5073848;28;20306;-69
2022/01/26 21:30:37;;;;;;;2.40;2.30;;;-2.50;99.90;;;;;;5073820;28;20314;-69
2022/01/26 21:33:05;;;;;;;2.80;2.60;;;-2.50;99.90;;;;;;5073853;28;20287;-69
2022/01/26 21:35:32;;;;;;;2.67;2.58;;;-2.60;99.90;;;;;;5073596;28;20290;-69
2022/01/26 21:37:59;;;;;;;2.03;1.95;;;-2.60;99.90;;;;;;5073753;28;20196;-69
2022/01/26 21:40:26;;;;;;;2.50;2.30;;;-2.60;99.90;;;;;;5073606;28;20649;-69
2022/01/26 21:42:53;;;;;;;2.35;2.25;;;-2.70;99.90;;;;;;5073720;28;20239;-71
2022/01/26 21:45:20;;;;;;;2.10;2.00;;;-2.70;99.90;;;;;;5073447;28;20299;-71
2022/01/26 21:47:47;;;;;;;2.17;2.08;;;-2.60;99.90;;;;;;5073256;28;20216;-71
2022/01/26 21:50:16;;;;;;;2.33;2.13;;;-2.70;99.90;;;;;;5073178;28;20203;-71
2022/01/26 21:52:44;;;;;;;2.53;2.33;;;-2.70;99.90;;;;;;5073326;28;20291;-71
2022/01/26 21:55:12;;;;;;;2.40;2.30;;;-2.70;99.90;;;;;;5073728;28;20238;-71
2022/01/26 21:57:41;;;;;;;2.85;2.63;;;-2.70;99.90;;;;;;5073607;28;20294;-71
2022/01/26 22:00:10;;;;;;;2.63;2.53;;;-2.70;99.90;;;;;;5073164;28;20206;-71
2022/01/26 22:02:36;;;;;;;2.10;2.00;;;-2.80;99.90;;;;;;5073631;28;20287;-71
2022/01/26 22:05:04;;;;;;;2.47;2.30;;;-2.80;99.90;;;;;;5073472;28;20278;-71
2022/01/26 22:07:32;;;;;;;2.40;2.22;;;-2.80;99.90;;;;;;5075264;28;20302;-71
2022/01/26 22:09:59;;;;;;;2.50;2.40;;;-2.80;99.90;;;;;;5077464;28;20287;-70
2022/01/26 22:12:26;;;;;;;2.55;2.35;;;-2.80;99.90;;;;;;5077512;28;20311;-72
2022/01/26 22:14:53;;;;;;;2.58;2.47;;;-2.80;99.90;;;;;;5077190;28;20608;-71
2022/01/26 22:17:20;;;;;;;2.67;2.45;;;-2.90;99.90;;;;;;5077341;28;20196;-71
2022/01/26 22:19:47;;;;;;;2.90;2.67;;;-2.90;99.90;;;;;;5077405;28;20283;-71
2022/01/26 22:22:14;;;;;;;2.67;2.47;;;-2.90;99.90;;;;;;5077616;28;20311;-71
2022/01/26 22:24:43;;;;;;;2.70;2.50;;;-2.90;99.90;;;;;;5077223;28;20207;-71
2022/01/26 22:27:14;;;;;;;2.85;2.65;;;-3.00;99.90;;;;;;5077040;28;20254;-71
2022/01/26 22:29:41;;;;;;;2.90;2.70;;;-3.00;99.90;;;;;;5077361;28;20180;-71
2022/01/26 22:32:09;;;;;;;2.40;2.30;;;-3.00;99.90;;;;;;5077527;28;20227;-71
2022/01/26 22:34:36;;;;;;;3.17;2.90;;;-3.00;99.90;;;;;;5077122;28;20663;-71
2022/01/26 22:37:06;;;;;;;3.08;2.80;;;-3.10;99.90;;;;;;5077001;28;20298;-71
2022/01/26 22:39:33;;;;;;;4.57;2.92;;;-3.10;99.90;;;;;;5076688;28;20628;-72
2022/01/26 22:42:02;;;;;;;3.35;3.05;;;-3.10;99.90;;;;;;5076809;28;20216;-71
2022/01/26 22:44:29;;;;;;;2.20;2.03;;;-3.20;99.90;;;;;;5076605;28;20306;-71
2022/01/26 22:46:55;;;;;;;2.90;2.70;;;-3.10;99.90;;;;;;5076786;28;20314;-71
2022/01/26 22:49:22;;;;;;;2.70;2.50;;;-3.20;99.90;;;;;;5076818;28;20306;-71
2022/01/26 22:51:49;;;;;;;3.40;2.95;;;-3.20;99.90;;;;;;5076417;28;20668;-70
2022/01/26 22:54:16;;;;;;;3.20;2.90;;;-3.20;99.90;;;;;;5076669;28;20299;-69
2022/01/26 22:56:43;;;;;;;4.55;3.28;;;-3.20;99.90;;;;;;5076867;28;20291;-70
2022/01/26 22:59:11;;;;;;;4.57;3.08;;;-3.30;99.90;;;;;;5076613;28;20291;-71
2022/01/26 23:04:29;;;;;;;3.80;3.25;;;-3.20;99.90;;;;;;5037898;28;20299;-70
2022/01/26 23:06:56;;;;;;;3.95;3.60;;;-3.30;99.90;;;;;;5075947;28;20204;-70
2022/01/26 23:09:22;;;;;;;4.95;3.75;;;-3.30;99.90;;;;;;5076358;28;20287;-72
